Time;durP1;ratioP1;P1;durP2;ratioP2;P2;SDS_P1;SDS_P2;PMS_P1;PMS_P2;Temp;Humidity;BMP_temperature;BMP_pressure;BME280_temperature;BME280_humidity;BME280_pressure;Samples;Min_cycle;Max_cycle;Signal;HPM_P1;HPM_P2
2021/06/16 00:00:48;;;;;;;3.28;1.40;;;20.30;60.50;;;;;;6289940;22;20039;-71
2021/06/16 00:03:14;;;;;;;3.63;1.30;;;20.30;60.70;;;;;;6289684;22;20429;-71
2021/06/16 00:05:39;;;;;;;3.53;1.50;;;20.30;60.40;;;;;;6290410;22;20025;-71
2021/06/16 00:08:05;;;;;;;4.30;1.40;;;20.30;60.60;;;;;;6289866;22;20016;-71
2021/06/16 00:10:33;;;;;;;3.28;1.17;;;20.30;60.70;;;;;;6290019;22;20039;-71
2021/06/16 00:13:02;;;;;;;5.35;1.27;;;20.20;60.50;;;;;;6285256;22;20039;-71
2021/06/16 00:15:31;;;;;;;4.32;1.20;;;20.20;60.60;;;;;;6289729;22;20023;-71
2021/06/16 00:17:57;;;;;;;3.90;1.25;;;20.20;60.60;;;;;;6289724;22;20016;-71
2021/06/16 00:20:24;;;;;;;3.58;0.80;;;20.20;60.70;;;;;;6290481;22;20016;-71
2021/06/16 00:22:51;;;;;;;2.35;1.00;;;20.20;60.70;;;;;;6289080;22;20438;-71
2021/06/16 00:25:17;;;;;;;3.50;1.20;;;20.20;60.70;;;;;;6289307;22;20428;-71
2021/06/16 00:27:42;;;;;;;2.53;0.80;;;20.20;60.80;;;;;;6279362;22;20022;-70
2021/06/16 00:30:10;;;;;;;2.92;1.25;;;20.20;60.80;;;;;;6289559;22;20012;-71
2021/06/16 00:32:36;;;;;;;2.92;1.33;;;20.20;60.90;;;;;;6289604;22;20039;-71
2021/06/16 00:35:03;;;;;;;4.07;1.38;;;20.20;60.90;;;;;;6279514;22;20023;-71
2021/06/16 00:37:29;;;;;;;5.38;1.38;;;20.20;60.80;;;;;;6289971;22;20015;-71
2021/06/16 00:39:56;;;;;;;5.35;1.58;;;20.20;61.10;;;;;;6279263;22;20067;-71
2021/06/16 00:42:23;;;;;;;3.50;1.17;;;20.20;61.20;;;;;;6289644;22;20026;-70
2021/06/16 00:44:49;;;;;;;6.38;1.40;;;20.20;61.20;;;;;;6279292;22;20047;-71
2021/06/16 00:47:15;;;;;;;4.35;1.20;;;20.10;61.00;;;;;;6289471;22;20016;-70
2021/06/16 00:49:41;;;;;;;4.28;1.40;;;20.20;61.10;;;;;;6289468;22;20266;-71
2021/06/16 00:52:07;;;;;;;3.97;1.38;;;20.10;61.00;;;;;;6288890;22;20042;-71
2021/06/16 00:54:39;;;;;;;3.83;1.30;;;20.10;61.00;;;;;;5154548;27;20508;-70
2021/06/16 00:57:06;;;;;;;5.82;1.92;;;20.10;61.10;;;;;;5133747;28;20410;-70
2021/06/16 01:00:04;;;;;;;5.47;1.45;;;20.10;61.10;;;;;;5133391;28;20043;-70
2021/06/16 01:02:47;;;;;;;4.65;1.45;;;20.10;59.70;;;;;;5132994;27;20043;-71
2021/06/16 01:05:14;;;;;;;8.07;1.48;;;20.10;61.00;;;;;;5133814;27;20420;-70
2021/06/16 01:07:43;;;;;;;6.03;1.70;;;20.10;61.10;;;;;;5132947;28;20043;-70
2021/06/16 01:10:15;;;;;;;3.10;1.42;;;20.00;61.10;;;;;;5134088;28;20055;-70
2021/06/16 01:12:59;;;;;;;6.03;1.40;;;20.10;61.10;;;;;;5120080;28;20044;-71
2021/06/16 01:15:27;;;;;;;;;;;20.00;60.30;;;;;;5113073;28;20035;-71
2021/06/16 01:17:59;;;;;;;6.25;1.90;;;20.00;60.40;;;;;;5112955;28;19924;-71
2021/06/16 01:20:41;;;;;;;3.67;1.00;;;20.00;61.00;;;;;;5115372;28;20352;-70
2021/06/16 01:23:42;;;;;;;5.28;1.55;;;20.00;61.30;;;;;;5132373;28;20428;-71
2021/06/16 01:26:18;;;;;;;3.60;1.30;;;20.00;61.20;;;;;;5077232;28;20530;-70
2021/06/16 01:28:44;;;;;;;6.15;1.88;;;20.00;61.20;;;;;;5132925;28;20412;-70
2021/06/16 01:31:12;;;;;;;3.45;1.15;;;19.90;61.10;;;;;;5122375;28;20056;-70
2021/06/16 01:33:38;;;;;;;4.05;1.23;;;19.90;61.00;;;;;;5112027;28;20366;-70
2021/06/16 01:36:06;;;;;;;4.45;1.25;;;19.90;61.00;;;;;;5113009;28;20040;-71
2021/06/16 01:38:33;;;;;;;6.65;2.20;;;19.90;61.10;;;;;;5112617;28;20070;-70
2021/06/16 01:41:01;;;;;;;4.47;1.45;;;19.90;61.10;;;;;;5120306;28;20035;-70
2021/06/16 01:43:28;;;;;;;4.03;1.65;;;19.90;61.10;;;;;;5132938;28;20047;-70
2021/06/16 01:45:56;;;;;;;4.13;1.50;;;19.90;61.20;;;;;;5132693;28;20047;-70
2021/06/16 01:48:22;;;;;;;7.25;1.92;;;19.90;61.20;;;;;;5133176;28;20051;-70
2021/06/16 01:50:51;;;;;;;5.50;1.52;;;19.90;60.90;;;;;;5125577;28;20107;-70
2021/06/16 01:53:19;;;;;;;5.45;1.83;;;19.90;61.00;;;;;;5111908;28;20060;-70
2021/06/16 01:55:47;;;;;;;6.20;1.88;;;19.90;61.10;;;;;;5111843;28;20457;-70
2021/06/16 01:58:15;;;;;;;3.65;1.20;;;19.90;61.10;;;;;;5111626;28;20134;-70
2021/06/16 02:00:42;;;;;;;3.97;1.42;;;19.90;61.00;;;;;;5117304;28;20058;-70
2021/06/16 02:03:08;;;;;;;4.00;1.50;;;19.90;61.10;;;;;;5132440;28;20063;-70
2021/06/16 02:05:34;;;;;;;4.82;1.40;;;19.80;61.10;;;;;;5121682;28;20101;-70
2021/06/16 02:08:06;;;;;;;3.70;1.52;;;19.80;61.00;;;;;;5118832;28;20059;-70
2021/06/16 02:10:44;;;;;;;4.05;1.15;;;19.80;61.10;;;;;;5114517;28;20040;-70
2021/06/16 02:13:11;;;;;;;4.40;1.50;;;19.80;60.90;;;;;;5098467;28;20063;-70
2021/06/16 02:15:48;;;;;;;4.50;1.45;;;19.80;60.80;;;;;;5097956;28;20060;-70
2021/06/16 02:18:16;;;;;;;5.25;1.60;;;19.80;60.90;;;;;;5098130;28;20122;-70
2021/06/16 02:20:43;;;;;;;7.53;1.80;;;19.80;60.80;;;;;;5102886;28;20044;-70
2021/06/16 02:23:09;;;;;;;4.80;1.92;;;19.70;60.80;;;;;;5118213;28;20051;-70
2021/06/16 02:25:35;;;;;;;3.47;1.27;;;19.70;60.90;;;;;;5118293;28;20513;-70
2021/06/16 02:28:01;;;;;;;5.47;1.88;;;19.70;60.80;;;;;;5117824;28;20040;-70
2021/06/16 02:30:27;;;;;;;5.22;1.48;;;19.70;61.00;;;;;;5115417;28;20352;-70
2021/06/16 02:32:53;;;;;;;5.03;1.17;;;19.70;60.80;;;;;;5098315;28;20040;-70
2021/06/16 02:35:19;;;;;;;6.30;1.90;;;19.70;60.50;;;;;;5097966;28;20108;-70
2021/06/16 02:37:50;;;;;;;5.43;1.77;;;19.70;60.80;;;;;;5097675;28;20108;-70
2021/06/16 02:40:18;;;;;;;5.40;1.45;;;19.70;60.60;;;;;;5097948;28;20066;-70
2021/06/16 02:42:46;;;;;;;5.30;1.77;;;19.70;60.70;;;;;;5117786;28;20358;-70
2021/06/16 02:45:13;;;;;;;4.80;1.13;;;19.70;60.80;;;;;;5118563;28;20093;-70
2021/06/16 02:47:43;;;;;;;4.35;1.75;;;19.70;60.60;;;;;;5118091;28;20054;-70
2021/06/16 02:50:11;;;;;;;4.88;1.42;;;19.70;60.60;;;;;;5108970;28;20040;-70
2021/06/16 02:52:42;;;;;;;5.22;1.65;;;19.70;60.70;;;;;;5096920;28;20475;-70
2021/06/16 02:55:10;;;;;;;3.90;1.65;;;19.70;60.70;;;;;;5097764;28;20075;-70
2021/06/16 02:57:40;;;;;;;4.82;1.40;;;19.70;60.50;;;;;;5097079;28;20036;-70
2021/06/16 03:00:09;;;;;;;4.25;1.60;;;19.60;60.60;;;;;;5104141;28;20071;-70
2021/06/16 03:02:38;;;;;;;5.75;1.77;;;19.60;60.60;;;;;;5097397;28;20328;-70
2021/06/16 03:05:06;;;;;;;4.53;1.58;;;19.60;60.40;;;;;;5096818;28;20109;-70
2021/06/16 03:07:36;;;;;;;3.72;1.33;;;19.60;60.40;;;;;;5096912;28;20101;-70
2021/06/16 03:10:05;;;;;;;6.20;2.17;;;19.60;60.50;;;;;;5108945;28;20058;-70
2021/06/16 03:12:33;;;;;;;4.70;1.80;;;19.60;60.60;;;;;;5117577;28;20108;-70
2021/06/16 03:15:00;;;;;;;5.43;2.03;;;19.60;60.70;;;;;;5117505;28;20036;-71
2021/06/16 03:17:27;;;;;;;3.25;1.77;;;19.60;60.70;;;;;;5116250;28;20399;-70
2021/06/16 03:19:54;;;;;;;5.03;1.80;;;19.60;60.80;;;;;;5106392;28;20051;-70
2021/06/16 03:22:22;;;;;;;5.25;1.50;;;19.60;60.70;;;;;;5096802;28;20135;-70
2021/06/16 03:24:49;;;;;;;3.78;1.25;;;19.60;60.80;;;;;;5096607;28;20097;-70
2021/06/16 03:27:16;;;;;;;3.85;1.70;;;19.60;60.70;;;;;;5096644;28;20060;-70
2021/06/16 03:29:42;;;;;;;5.80;1.50;;;19.60;60.60;;;;;;5104995;28;20051;-70
2021/06/16 03:32:10;;;;;;;4.93;1.17;;;19.60;60.60;;;;;;5116358;28;20350;-70
2021/06/16 03:34:37;;;;;;;5.75;1.85;;;19.60;60.70;;;;;;5116880;28;20362;-70
2021/06/16 03:37:07;;;;;;;5.40;1.40;;;19.50;60.80;;;;;;5117096;28;20058;-70
2021/06/16 03:39:34;;;;;;;5.65;1.60;;;19.50;60.80;;;;;;5109488;28;20047;-70
2021/06/16 03:42:02;;;;;;;3.78;1.48;;;19.60;60.80;;;;;;5097039;28;20442;-70
2021/06/16 03:44:30;;;;;;;4.30;1.38;;;19.60;60.70;;;;;;5096519;28;20048;-70
2021/06/16 03:46:57;;;;;;;5.38;1.70;;;19.50;60.60;;;;;;5096474;28;20051;-70
2021/06/16 03:49:25;;;;;;;4.85;2.00;;;19.60;60.70;;;;;;5101296;28;20066;-70
2021/06/16 03:51:54;;;;;;;5.13;1.60;;;19.50;60.60;;;;;;5116635;28;20055;-70
2021/06/16 03:54:21;;;;;;;4.93;1.73;;;19.50;60.50;;;;;;5115222;28;20059;-70
2021/06/16 03:56:47;;;;;;;5.32;1.55;;;19.50;60.70;;;;;;5116891;28;20051;-70
2021/06/16 03:59:15;;;;;;;4.57;1.45;;;19.50;60.80;;;;;;5112493;28;20434;-71
2021/06/16 04:01:43;;;;;;;3.65;1.30;;;19.50;60.80;;;;;;5102657;28;20485;-70
2021/06/16 04:04:11;;;;;;;5.35;1.73;;;19.50;60.80;;;;;;5116410;28;20120;-70
2021/06/16 04:06:41;;;;;;;4.18;1.27;;;19.50;60.80;;;;;;5116264;28;20040;-70
2021/06/16 04:09:10;;;;;;;4.80;1.55;;;19.50;60.80;;;;;;5116383;28;20454;-72
2021/06/16 04:11:36;;;;;;;8.93;1.67;;;19.50;60.50;;;;;;5110680;28;20044;-69
2021/06/16 04:14:02;;;;;;;5.85;2.03;;;19.40;60.80;;;;;;5096026;28;20136;-71
2021/06/16 04:16:29;;;;;;;6.28;1.50;;;19.50;61.10;;;;;;5096057;28;20115;-69
2021/06/16 04:18:55;;;;;;;5.57;2.03;;;19.60;60.80;;;;;;5095707;28;20066;-69
2021/06/16 04:21:21;;;;;;;4.70;1.83;;;19.60;60.60;;;;;;5098660;28;20040;-71
2021/06/16 04:23:48;;;;;;;8.73;2.42;;;19.60;60.50;;;;;;5116220;28;20043;-75
2021/06/16 04:26:16;;;;;;;5.85;2.53;;;19.60;61.40;;;;;;5116174;28;20432;-70
2021/06/16 04:28:41;;;;;;;10.65;2.47;;;19.50;60.80;;;;;;5115673;28;20062;-69
2021/06/16 04:31:08;;;;;;;10.38;2.15;;;19.50;61.90;;;;;;5114814;28;20051;-70
2021/06/16 04:33:34;;;;;;;6.45;2.10;;;19.50;61.50;;;;;;5113539;28;20051;-75
2021/06/16 04:36:04;;;;;;;7.30;2.58;;;19.50;61.60;;;;;;5115782;28;20181;-69
2021/06/16 04:38:30;;;;;;;11.05;2.65;;;19.50;62.00;;;;;;5116572;28;20072;-70
2021/06/16 04:40:56;;;;;;;6.47;2.47;;;19.40;61.90;;;;;;5115928;28;20462;-70
2021/06/16 04:43:22;;;;;;;6.47;2.17;;;19.40;61.10;;;;;;5095965;28;20085;-70
2021/06/16 04:45:48;;;;;;;9.80;2.38;;;19.40;61.40;;;;;;5095393;28;20127;-70
2021/06/16 04:48:14;;;;;;;7.82;2.63;;;19.30;61.10;;;;;;5095597;28;20115;-71
2021/06/16 04:50:40;;;;;;;6.95;2.08;;;19.30;61.20;;;;;;5095975;28;20039;-71
2021/06/16 04:53:06;;;;;;;7.13;2.40;;;19.30;61.40;;;;;;5096267;28;20056;-70
2021/06/16 04:55:31;;;;;;;6.18;2.35;;;19.30;61.30;;;;;;5095458;28;20075;-70
2021/06/16 04:57:57;;;;;;;4.05;1.90;;;19.20;61.20;;;;;;5095276;28;20419;-70
2021/06/16 05:00:23;;;;;;;6.55;2.28;;;19.20;61.60;;;;;;5095423;28;20366;-71
2021/06/16 05:02:58;;;;;;;6.18;2.20;;;19.20;61.70;;;;;;5108253;28;20119;-70
2021/06/16 05:05:26;;;;;;;8.85;2.50;;;19.30;62.30;;;;;;5115448;28;20473;-70
2021/06/16 05:07:52;;;;;;;10.93;2.97;;;19.20;62.40;;;;;;5115372;28;20051;-74
2021/06/16 05:10:18;;;;;;;8.20;1.98;;;19.30;62.40;;;;;;5115430;28;20112;-70
2021/06/16 05:12:44;;;;;;;12.98;2.40;;;19.30;62.50;;;;;;5095002;28;20117;-70
2021/06/16 05:15:11;;;;;;;10.80;2.47;;;19.30;63.20;;;;;;5095295;28;20044;-70
2021/06/16 05:17:40;;;;;;;9.20;2.75;;;19.40;63.90;;;;;;5094924;28;20044;-70
2021/06/16 05:20:12;;;;;;;8.63;2.10;;;19.40;63.30;;;;;;5094966;28;20115;-69
2021/06/16 05:22:38;;;;;;;11.25;2.55;;;19.50;63.30;;;;;;5113761;28;20043;-70
2021/06/16 05:25:07;;;;;;;12.30;2.63;;;19.50;63.00;;;;;;5115262;28;20134;-69
2021/06/16 05:27:34;;;;;;;8.07;2.45;;;19.40;63.10;;;;;;5115164;28;20052;-71
2021/06/16 05:30:02;;;;;;;9.27;2.85;;;19.40;63.10;;;;;;5115102;28;20047;-70
2021/06/16 05:32:28;;;;;;;8.73;2.40;;;19.40;63.30;;;;;;5097007;28;20063;-70
2021/06/16 05:34:53;;;;;;;5.75;2.33;;;19.40;63.20;;;;;;5093941;28;20081;-71
2021/06/16 05:37:20;;;;;;;7.15;2.25;;;19.40;63.10;;;;;;5095043;28;20047;-71
2021/06/16 05:39:46;;;;;;;8.30;2.55;;;19.40;63.30;;;;;;5095854;28;20050;-71
2021/06/16 05:42:12;;;;;;;7.30;2.55;;;19.50;63.20;;;;;;5113316;28;20403;-70
2021/06/16 05:44:37;;;;;;;6.60;2.50;;;19.50;63.20;;;;;;5119374;28;20462;-71
2021/06/16 05:47:04;;;;;;;10.88;2.80;;;19.50;63.20;;;;;;5119297;28;20047;-70
2021/06/16 05:49:30;;;;;;;7.07;2.53;;;19.50;63.10;;;;;;5119700;28;20423;-70
2021/06/16 05:51:56;;;;;;;11.38;2.55;;;19.50;63.00;;;;;;5105378;28;20080;-70
2021/06/16 05:54:23;;;;;;;6.57;2.22;;;19.50;63.10;;;;;;5097747;28;20277;-72
2021/06/16 05:56:49;;;;;;;6.45;2.10;;;19.50;63.00;;;;;;5098743;28;20040;-73
2021/06/16 05:59:15;;;;;;;12.18;2.13;;;19.50;63.20;;;;;;5098197;28;20344;-73
2021/06/16 06:01:41;;;;;;;5.80;2.13;;;19.50;63.30;;;;;;5107748;28;20048;-69
2021/06/16 06:04:08;;;;;;;13.40;2.95;;;19.60;63.30;;;;;;5118624;28;20092;-69
2021/06/16 06:06:35;;;;;;;8.63;2.28;;;19.60;63.70;;;;;;5117751;28;20049;-71
2021/06/16 06:09:06;;;;;;;7.97;2.33;;;19.60;63.60;;;;;;5119064;28;20048;-71
2021/06/16 06:11:34;;;;;;;8.13;2.20;;;19.60;63.80;;;;;;5110238;28;20048;-72
2021/06/16 06:14:01;;;;;;;7.63;2.25;;;19.70;63.60;;;;;;5097544;28;20474;-71
2021/06/16 06:16:26;;;;;;;8.75;2.25;;;19.70;63.60;;;;;;5098027;28;20115;-70
2021/06/16 06:18:52;;;;;;;9.52;3.60;;;19.80;64.00;;;;;;5097858;28;20131;-70
2021/06/16 06:21:18;;;;;;;8.38;2.70;;;19.80;63.90;;;;;;5102326;28;20113;-70
2021/06/16 06:23:44;;;;;;;11.32;2.72;;;19.80;63.70;;;;;;5118721;28;20074;-70
2021/06/16 06:26:11;;;;;;;17.50;3.00;;;19.90;63.50;;;;;;5118027;28;20454;-70
2021/06/16 06:28:38;;;;;;;11.65;2.97;;;19.90;63.50;;;;;;5118915;28;20086;-70
2021/06/16 06:31:05;;;;;;;8.45;2.50;;;19.90;63.40;;;;;;5115881;28;20044;-70
2021/06/16 06:33:31;;;;;;;7.82;2.83;;;19.90;63.30;;;;;;5097975;28;20047;-70
2021/06/16 06:35:57;;;;;;;7.80;3.55;;;19.90;63.30;;;;;;5097930;28;20044;-70
2021/06/16 06:38:23;;;;;;;8.50;3.45;;;19.90;63.30;;;;;;5097505;28;20050;-70
2021/06/16 06:40:49;;;;;;;9.00;3.00;;;19.90;63.30;;;;;;5097785;28;20465;-71
2021/06/16 06:43:16;;;;;;;7.80;3.17;;;19.90;63.20;;;;;;5116310;28;20083;-70
2021/06/16 06:45:41;;;;;;;6.50;3.42;;;20.00;63.40;;;;;;5117685;28;20119;-69
2021/06/16 06:48:07;;;;;;;10.43;2.90;;;19.90;63.20;;;;;;5117571;28;20122;-70
2021/06/16 06:50:34;;;;;;;6.68;3.03;;;20.00;63.30;;;;;;5117276;28;20040;-70
2021/06/16 06:53:00;;;;;;;9.50;3.08;;;20.00;63.20;;;;;;5099797;28;20383;-70
2021/06/16 06:55:26;;;;;;;6.00;2.58;;;20.00;63.50;;;;;;5096949;28;20044;-70
2021/06/16 06:57:51;;;;;;;9.68;3.90;;;20.00;63.40;;;;;;5097097;28;20506;-69
2021/06/16 07:00:18;;;;;;;9.88;3.50;;;20.10;63.30;;;;;;5096972;28;20044;-71
2021/06/16 07:02:44;;;;;;;9.10;3.45;;;20.10;63.20;;;;;;5110997;28;20088;-70
2021/06/16 07:05:11;;;;;;;8.43;3.00;;;20.10;63.20;;;;;;5117535;28;20498;-70
2021/06/16 07:07:37;;;;;;;9.55;2.92;;;20.10;63.20;;;;;;5117032;28;20087;-71
2021/06/16 07:10:03;;;;;;;7.20;3.28;;;20.10;63.80;;;;;;5117401;28;20040;-70
2021/06/16 07:12:29;;;;;;;7.68;2.92;;;20.10;63.10;;;;;;5104953;28;20105;-70
2021/06/16 07:14:55;;;;;;;8.23;3.35;;;20.20;63.80;;;;;;5097038;28;20459;-71
2021/06/16 07:17:23;;;;;;;8.27;3.38;;;20.20;63.20;;;;;;5096874;28;20071;-70
2021/06/16 07:19:50;;;;;;;9.18;3.22;;;20.20;63.20;;;;;;5096384;28;20047;-70
2021/06/16 07:22:16;;;;;;;10.23;2.60;;;20.20;63.10;;;;;;5105400;28;20074;-70
2021/06/16 07:24:42;;;;;;;6.03;2.80;;;20.30;63.10;;;;;;5117138;28;20039;-71
2021/06/16 07:27:09;;;;;;;7.93;3.22;;;20.30;63.20;;;;;;5116841;28;20431;-71
2021/06/16 07:29:35;;;;;;;8.77;2.95;;;20.30;63.10;;;;;;5116737;28;20051;-70
2021/06/16 07:32:05;;;;;;;9.32;2.90;;;20.40;63.20;;;;;;5114925;28;20112;-70
2021/06/16 07:34:32;;;;;;;5.78;3.08;;;20.40;63.10;;;;;;5116818;28;20122;-70
2021/06/16 07:36:57;;;;;;;7.13;3.10;;;20.40;63.10;;;;;;5117011;28;20049;-70
2021/06/16 07:39:23;;;;;;;6.13;2.88;;;20.40;63.00;;;;;;5117034;28;20401;-71
2021/06/16 07:41:49;;;;;;;7.88;3.05;;;20.40;63.00;;;;;;5112353;28;20449;-72
2021/06/16 07:44:15;;;;;;;8.65;3.90;;;20.50;63.10;;;;;;5095727;28;20048;-74
2021/06/16 07:46:41;;;;;;;6.22;3.80;;;20.50;62.90;;;;;;5096410;28;20044;-73
2021/06/16 07:49:07;;;;;;;6.88;4.25;;;20.50;62.90;;;;;;5095311;28;20055;-70
2021/06/16 07:51:33;;;;;;;7.80;3.63;;;20.50;63.10;;;;;;5096025;28;20048;-70
2021/06/16 07:53:59;;;;;;;10.02;3.75;;;20.60;63.90;;;;;;5116296;28;20385;-70
2021/06/16 07:56:25;;;;;;;5.93;3.00;;;20.60;63.60;;;;;;5115587;28;20050;-69
2021/06/16 07:58:51;;;;;;;7.18;3.08;;;20.60;63.50;;;;;;5116564;28;20043;-70
2021/06/16 08:01:18;;;;;;;7.28;2.95;;;20.60;63.40;;;;;;5114450;28;20039;-69
2021/06/16 08:03:43;;;;;;;6.15;2.83;;;20.60;63.40;;;;;;5115635;28;20044;-70
2021/06/16 08:06:10;;;;;;;6.97;2.78;;;20.70;63.40;;;;;;5115054;28;20039;-70
2021/06/16 08:08:38;;;;;;;5.13;2.53;;;20.70;63.60;;;;;;5115804;28;20055;-69
2021/06/16 08:11:04;;;;;;;6.70;2.65;;;20.70;63.60;;;;;;5116120;28;20117;-69
2021/06/16 08:13:31;;;;;;;6.00;2.80;;;20.80;63.70;;;;;;5114444;28;20047;-70
2021/06/16 08:15:58;;;;;;;6.25;2.40;;;20.80;63.70;;;;;;5115794;28;20097;-70
2021/06/16 08:18:24;;;;;;;5.95;1.90;;;20.80;63.60;;;;;;5115989;28;20074;-70
2021/06/16 08:20:50;;;;;;;7.90;2.75;;;20.80;63.70;;;;;;5115753;28;20524;-69
2021/06/16 08:23:16;;;;;;;6.78;3.20;;;20.90;63.70;;;;;;5098470;28;20048;-70
2021/06/16 08:25:45;;;;;;;6.70;2.17;;;20.90;63.80;;;;;;5094955;28;20051;-69
2021/06/16 08:28:11;;;;;;;5.30;1.90;;;20.90;63.80;;;;;;5095109;28;20365;-70
2021/06/16 08:30:37;;;;;;;5.60;2.63;;;20.90;63.90;;;;;;5101188;28;20114;-69
2021/06/16 08:33:04;;;;;;;6.28;2.38;;;20.90;64.00;;;;;;5094997;28;20072;-70
2021/06/16 08:35:30;;;;;;;8.18;2.28;;;20.90;64.00;;;;;;5095160;28;20044;-71
2021/06/16 08:37:56;;;;;;;11.63;2.90;;;20.90;64.10;;;;;;5095746;28;20112;-71
2021/06/16 08:40:22;;;;;;;7.72;2.60;;;20.90;63.90;;;;;;5099533;28;20288;-72
2021/06/16 08:42:49;;;;;;;7.07;2.63;;;21.00;63.90;;;;;;5115925;28;20051;-71
2021/06/16 08:45:17;;;;;;;9.32;2.53;;;21.00;63.90;;;;;;5114731;28;20078;-69
2021/06/16 08:47:50;;;;;;;8.13;2.60;;;21.00;63.90;;;;;;5100408;28;20067;-70
2021/06/16 08:50:17;;;;;;;4.95;2.10;;;21.00;63.90;;;;;;5095375;28;20044;-70
2021/06/16 08:52:45;;;;;;;7.38;2.15;;;21.00;63.90;;;;;;5095797;28;20044;-70
2021/06/16 08:55:19;;;;;;;10.30;2.70;;;21.00;63.90;;;;;;5094276;28;20043;-69
2021/06/16 08:57:46;;;;;;;8.75;2.75;;;21.10;63.90;;;;;;5094859;28;20081;-70
2021/06/16 09:00:14;;;;;;;7.40;3.33;;;21.10;63.80;;;;;;5095561;28;20075;-69
2021/06/16 09:02:40;;;;;;;5.28;3.08;;;21.10;63.80;;;;;;5095212;28;20120;-70
2021/06/16 09:05:07;;;;;;;7.82;2.65;;;21.10;63.80;;;;;;5095496;28;20040;-70
2021/06/16 09:07:34;;;;;;;8.13;2.45;;;21.10;63.80;;;;;;5095408;28;20123;-71
2021/06/16 09:10:14;;;;;;;6.05;3.05;;;21.10;63.60;;;;;;5094594;28;20036;-70
2021/06/16 09:12:46;;;;;;;6.82;2.60;;;21.20;63.70;;;;;;5113858;28;20075;-72
2021/06/16 09:15:14;;;;;;;6.00;1.95;;;21.20;63.80;;;;;;5117280;28;20063;-70
2021/06/16 09:17:40;;;;;;;6.57;2.22;;;21.20;63.80;;;;;;5119584;28;20040;-70
2021/06/16 09:20:07;;;;;;;8.77;2.65;;;21.20;63.80;;;;;;5119391;28;20054;-70
2021/06/16 09:22:34;;;;;;;5.75;2.00;;;21.20;63.80;;;;;;5101658;28;20071;-69
2021/06/16 09:25:03;;;;;;;6.07;2.20;;;21.20;64.00;;;;;;5098989;28;20106;-69
2021/06/16 09:27:55;;;;;;;4.78;2.92;;;21.20;64.00;;;;;;5099245;28;20644;-70
2021/06/16 09:30:22;;;;;;;5.88;2.38;;;21.30;63.90;;;;;;5098723;28;20127;-69
2021/06/16 09:32:49;;;;;;;6.70;2.42;;;21.20;63.80;;;;;;5118345;28;20046;-70
2021/06/16 09:35:23;;;;;;;6.10;2.50;;;21.30;63.60;;;;;;5119013;28;20054;-71
2021/06/16 09:37:50;;;;;;;10.50;2.53;;;21.30;63.50;;;;;;5118922;28;20183;-70
2021/06/16 09:40:42;;;;;;;3.70;2.25;;;21.30;63.60;;;;;;5105502;28;20040;-71
2021/06/16 09:43:10;;;;;;;6.13;2.53;;;21.30;63.50;;;;;;5098436;28;20117;-71
2021/06/16 09:45:37;;;;;;;6.65;3.10;;;21.30;63.70;;;;;;5097787;28;20395;-70
2021/06/16 09:48:25;;;;;;;7.22;2.50;;;21.30;63.80;;;;;;5098220;28;20066;-72
2021/06/16 09:51:08;;;;;;;7.20;2.13;;;21.40;63.80;;;;;;5098533;28;20054;-72
2021/06/16 09:53:59;;;;;;;5.50;2.35;;;21.40;64.00;;;;;;5097750;28;20139;-71
2021/06/16 09:56:32;;;;;;;6.25;2.30;;;21.40;64.00;;;;;;5097676;28;20375;-71
2021/06/16 09:58:59;;;;;;;6.07;2.67;;;21.40;64.10;;;;;;5097817;28;20529;-71
2021/06/16 10:01:45;;;;;;;5.40;1.80;;;21.40;64.10;;;;;;5098212;28;20054;-71
2021/06/16 10:04:32;;;;;;;6.28;2.45;;;21.50;64.00;;;;;;5098130;28;20177;-71
2021/06/16 10:07:21;;;;;;;7.18;2.22;;;21.50;64.20;;;;;;5097459;28;20137;-70
2021/06/16 10:09:55;;;;;;;3.63;2.17;;;21.50;64.30;;;;;;5097922;28;20048;-71
2021/06/16 10:12:23;;;;;;;7.68;2.35;;;21.50;64.40;;;;;;5097969;28;20398;-70
2021/06/16 10:14:50;;;;;;;5.25;2.40;;;21.50;64.10;;;;;;5097489;28;20051;-71
2021/06/16 10:17:16;;;;;;;7.90;1.98;;;21.50;64.40;;;;;;5097769;28;20043;-71
2021/06/16 10:19:43;;;;;;;3.88;2.03;;;21.50;64.00;;;;;;5097770;28;20122;-70
2021/06/16 10:22:10;;;;;;;8.88;2.53;;;21.60;64.30;;;;;;5097842;28;20431;-70
2021/06/16 10:24:36;;;;;;;4.45;2.00;;;21.60;64.30;;;;;;5097883;28;20044;-70
2021/06/16 10:27:05;;;;;;;8.18;2.83;;;21.60;64.20;;;;;;5097217;28;20050;-69
2021/06/16 10:29:35;;;;;;;5.97;2.10;;;21.50;64.20;;;;;;5099237;28;20064;-70
2021/06/16 10:32:04;;;;;;;6.28;3.08;;;21.50;64.50;;;;;;5116212;28;20073;-70
2021/06/16 10:35:09;;;;;;;3.88;2.30;;;21.60;64.70;;;;;;5117370;28;20438;-70
2021/06/16 10:37:36;;;;;;;5.00;2.35;;;21.50;64.30;;;;;;5055285;28;20114;-69
2021/06/16 10:40:23;;;;;;;5.97;2.95;;;21.60;64.50;;;;;;5050556;28;20045;-70
2021/06/16 10:43:05;;;;;;;4.53;2.38;;;21.60;64.10;;;;;;5074348;28;20063;-69
2021/06/16 10:45:47;;;;;;;6.07;2.45;;;21.60;64.30;;;;;;5097458;28;20044;-69
2021/06/16 10:48:15;;;;;;;3.78;2.03;;;21.60;64.30;;;;;;5097487;28;20044;-69
2021/06/16 10:50:47;;;;;;;4.72;2.50;;;21.60;64.60;;;;;;5107404;28;20047;-69
2021/06/16 10:53:23;;;;;;;7.70;2.53;;;21.60;64.50;;;;;;5117618;28;20131;-70
2021/06/16 10:55:52;;;;;;;5.35;2.20;;;21.60;64.50;;;;;;5118094;28;20044;-69
2021/06/16 10:58:25;;;;;;;3.70;2.10;;;21.60;64.50;;;;;;5117538;28;20054;-69
2021/06/16 11:01:10;;;;;;;3.95;2.15;;;21.60;64.40;;;;;;5117560;28;20122;-69
2021/06/16 11:03:52;;;;;;;4.18;2.10;;;21.60;64.30;;;;;;5117720;27;20044;-69
2021/06/16 11:06:36;;;;;;;7.35;3.20;;;21.60;64.30;;;;;;5117868;28;20090;-69
2021/06/16 11:09:08;;;;;;;4.50;1.98;;;21.60;64.40;;;;;;5117065;28;20047;-70
2021/06/16 11:11:49;;;;;;;3.10;2.00;;;21.70;64.50;;;;;;5100575;28;20119;-69
2021/06/16 11:14:33;;;;;;;3.50;1.95;;;21.60;64.30;;;;;;5096810;28;20044;-70
2021/06/16 11:17:06;;;;;;;5.43;1.95;;;21.60;64.20;;;;;;5097028;28;20112;-70
2021/06/16 11:19:35;;;;;;;4.55;2.25;;;21.60;64.40;;;;;;5097324;28;20078;-70
2021/06/16 11:22:04;;;;;;;3.88;2.10;;;21.60;64.40;;;;;;5115464;28;20362;-69
2021/06/16 11:25:18;;;;;;;4.93;2.42;;;21.60;64.40;;;;;;5117784;28;20072;-69
2021/06/16 11:27:55;;;;;;;3.80;1.90;;;21.60;64.30;;;;;;5103439;28;20051;-69
2021/06/16 11:30:33;;;;;;;2.72;1.95;;;21.60;64.50;;;;;;5112470;28;20066;-70
2021/06/16 11:33:18;;;;;;;5.85;2.05;;;21.60;64.50;;;;;;5096530;28;20044;-70
2021/06/16 11:35:50;;;;;;;4.82;1.95;;;21.60;64.30;;;;;;5096660;28;20117;-70
2021/06/16 11:38:19;;;;;;;4.10;1.63;;;21.60;64.50;;;;;;5095508;28;20044;-69
2021/06/16 11:41:15;;;;;;;2.45;1.88;;;21.60;64.50;;;;;;5102911;28;20039;-69
2021/06/16 11:43:45;;;;;;;3.60;2.30;;;21.60;64.50;;;;;;5116364;28;20056;-70
2021/06/16 11:46:27;;;;;;;2.80;1.80;;;21.60;64.50;;;;;;5116718;28;20048;-70
2021/06/16 11:49:16;;;;;;;4.45;1.90;;;21.60;64.60;;;;;;5116730;28;20036;-70
2021/06/16 11:51:44;;;;;;;2.83;1.83;;;21.60;64.50;;;;;;5102418;28;20048;-70
2021/06/16 11:54:22;;;;;;;3.72;1.85;;;21.70;64.60;;;;;;5096786;28;20125;-69
2021/06/16 11:56:53;;;;;;;2.85;1.80;;;21.60;64.50;;;;;;5096351;28;20118;-70
2021/06/16 11:59:34;;;;;;;3.60;1.95;;;21.60;64.50;;;;;;5095976;28;20044;-69
2021/06/16 12:02:23;;;;;;;2.75;2.03;;;21.60;64.40;;;;;;5110586;28;20073;-69
2021/06/16 12:05:01;;;;;;;2.97;2.13;;;21.60;64.40;;;;;;5116470;28;20139;-69
2021/06/16 12:07:40;;;;;;;3.05;2.00;;;21.60;64.60;;;;;;5116683;28;20040;-70
2021/06/16 12:10:10;;;;;;;2.17;1.67;;;21.60;64.50;;;;;;5116523;28;20130;-69
2021/06/16 12:12:52;;;;;;;2.28;1.83;;;21.60;64.60;;;;;;5105870;28;20068;-70
2021/06/16 12:15:22;;;;;;;2.35;1.75;;;21.60;64.50;;;;;;5096554;28;20075;-71
2021/06/16 12:17:59;;;;;;;3.35;2.22;;;21.60;64.60;;;;;;5096211;28;20070;-70
2021/06/16 12:20:27;;;;;;;2.78;1.98;;;21.60;64.60;;;;;;5095871;28;20431;-70
2021/06/16 12:22:53;;;;;;;3.03;2.25;;;21.60;64.70;;;;;;5107117;28;20062;-70
2021/06/16 12:25:33;;;;;;;2.40;1.60;;;21.60;64.60;;;;;;5116345;28;20118;-70
2021/06/16 12:28:01;;;;;;;2.85;2.00;;;21.60;64.50;;;;;;5116203;28;20098;-70
2021/06/16 12:30:29;;;;;;;4.15;1.80;;;21.60;64.50;;;;;;5115829;28;20104;-72
2021/06/16 12:38:40;;;;;;;3.17;1.60;;;21.60;64.70;;;;;;5095678;28;20062;-70
2021/06/16 12:41:48;;;;;;;3.92;2.05;;;21.60;64.70;;;;;;5095140;28;20356;-71
2021/06/16 12:44:20;;;;;;;2.90;2.00;;;21.60;64.70;;;;;;5095635;28;20052;-71
2021/06/16 12:46:58;;;;;;;2.87;2.00;;;21.60;64.80;;;;;;5094758;28;20056;-71
2021/06/16 12:49:26;;;;;;;4.18;1.50;;;21.60;64.80;;;;;;5095005;28;20044;-70
2021/06/16 12:51:59;;;;;;;3.45;1.98;;;21.60;64.80;;;;;;5096313;28;20424;-70
2021/06/16 12:54:38;;;;;;;2.03;1.70;;;21.60;64.80;;;;;;5115563;28;20126;-71
2021/06/16 12:57:09;;;;;;;1.88;1.50;;;21.60;64.80;;;;;;5115768;28;20375;-71
2021/06/16 12:59:36;;;;;;;3.78;1.75;;;21.60;64.90;;;;;;5115491;28;20480;-70
2021/06/16 13:02:04;;;;;;;3.22;1.52;;;21.60;64.90;;;;;;5112596;28;20047;-73
2021/06/16 13:04:51;;;;;;;4.85;2.05;;;21.60;65.20;;;;;;5115289;28;20497;-71